sensor_id;sensor_type;location;lat;lon;timestamp;P1;durP1;ratioP1;P2;durP2;ratioP2
11189;SDS011;5651;50.926;4.718;2023-02-24T00:01:20;19.77;;;4.90;;
11189;SDS011;5651;50.926;4.718;2023-02-24T00:03:56;23.60;;;5.68;;
11189;SDS011;5651;50.926;4.718;2023-02-24T00:06:26;22.70;;;4.60;;
11189;SDS011;5651;50.926;4.718;2023-02-24T00:09:02;20.27;;;4.47;;
11189;SDS011;5651;50.926;4.718;2023-02-24T00:11:31;27.23;;;5.35;;
11189;SDS011;5651;50.926;4.718;2023-02-24T00:13:57;25.17;;;5.47;;
11189;SDS011;5651;50.926;4.718;2023-02-24T00:16:24;26.05;;;6.05;;
11189;SDS011;5651;50.926;4.718;2023-02-24T00:18:51;25.77;;;5.93;;
11189;SDS011;5651;50.926;4.718;2023-02-24T00:21:18;28.05;;;6.32;;
11189;SDS011;5651;50.926;4.718;2023-02-24T00:23:45;25.45;;;5.72;;
11189;SDS011;5651;50.926;4.718;2023-02-24T00:26:12;22.88;;;4.80;;
11189;SDS011;5651;50.926;4.718;2023-02-24T00:28:40;28.20;;;5.28;;
11189;SDS011;5651;50.926;4.718;2023-02-24T00:31:07;34.70;;;5.32;;
11189;SDS011;5651;50.926;4.718;2023-02-24T00:33:35;21.42;;;5.55;;
11189;SDS011;5651;50.926;4.718;2023-02-24T00:36:22;33.92;;;4.97;;
11189;SDS011;5651;50.926;4.718;2023-02-24T00:38:49;26.63;;;4.50;;
11189;SDS011;5651;50.926;4.718;2023-02-24T00:41:20;28.70;;;4.65;;
11189;SDS011;5651;50.926;4.718;2023-02-24T00:43:48;32.00;;;4.93;;
11189;SDS011;5651;50.926;4.718;2023-02-24T00:46:15;26.77;;;4.78;;
11189;SDS011;5651;50.926;4.718;2023-02-24T00:48:48;27.88;;;5.25;;
11189;SDS011;5651;50.926;4.718;2023-02-24T00:51:18;24.52;;;4.32;;
11189;SDS011;5651;50.926;4.718;2023-02-24T00:56:20;30.85;;;4.72;;
11189;SDS011;5651;50.926;4.718;2023-02-24T00:58:51;30.42;;;6.35;;
11189;SDS011;5651;50.926;4.718;2023-02-24T01:01:19;23.42;;;4.57;;
11189;SDS011;5651;50.926;4.718;2023-02-24T01:03:46;21.42;;;4.45;;
11189;SDS011;5651;50.926;4.718;2023-02-24T01:06:16;25.02;;;6.28;;
11189;SDS011;5651;50.926;4.718;2023-02-24T01:08:48;28.23;;;4.97;;
11189;SDS011;5651;50.926;4.718;2023-02-24T01:11:25;21.50;;;4.18;;
11189;SDS011;5651;50.926;4.718;2023-02-24T01:14:13;25.77;;;4.72;;
11189;SDS011;5651;50.926;4.718;2023-02-24T01:16:41;22.88;;;4.43;;
11189;SDS011;5651;50.926;4.718;2023-02-24T01:19:15;26.35;;;4.88;;
11189;SDS011;5651;50.926;4.718;2023-02-24T01:21:44;50.63;;;7.07;;
11189;SDS011;5651;50.926;4.718;2023-02-24T01:24:11;20.98;;;4.95;;
11189;SDS011;5651;50.926;4.718;2023-02-24T01:26:37;21.13;;;4.35;;
11189;SDS011;5651;50.926;4.718;2023-02-24T01:29:03;25.80;;;5.20;;
11189;SDS011;5651;50.926;4.718;2023-02-24T01:31:29;18.95;;;5.03;;
11189;SDS011;5651;50.926;4.718;2023-02-24T01:33:55;32.22;;;6.38;;
11189;SDS011;5651;50.926;4.718;2023-02-24T01:36:22;26.25;;;4.80;;
11189;SDS011;5651;50.926;4.718;2023-02-24T01:38:52;22.30;;;4.68;;
11189;SDS011;5651;50.926;4.718;2023-02-24T01:41:22;28.42;;;6.18;;
11189;SDS011;5651;50.926;4.718;2023-02-24T01:44:03;26.27;;;5.93;;
11189;SDS011;5651;50.926;4.718;2023-02-24T01:46:54;21.42;;;4.65;;
11189;SDS011;5651;50.926;4.718;2023-02-24T01:54:36;32.03;;;6.53;;
11189;SDS011;5651;50.926;4.718;2023-02-24T01:57:12;26.83;;;6.25;;
11189;SDS011;5651;50.926;4.718;2023-02-24T01:59:42;28.50;;;6.72;;
11189;SDS011;5651;50.926;4.718;2023-02-24T02:02:11;27.60;;;5.90;;
11189;SDS011;5651;50.926;4.718;2023-02-24T02:07:02;34.20;;;6.50;;
11189;SDS011;5651;50.926;4.718;2023-02-24T02:09:29;26.63;;;6.50;;
11189;SDS011;5651;50.926;4.718;2023-02-24T02:11:56;28.50;;;5.72;;
11189;SDS011;5651;50.926;4.718;2023-02-24T02:14:23;22.23;;;5.32;;
11189;SDS011;5651;50.926;4.718;2023-02-24T02:16:57;39.65;;;6.55;;
11189;SDS011;5651;50.926;4.718;2023-02-24T02:42:07;26.83;;;5.20;;
11189;SDS011;5651;50.926;4.718;2023-02-24T02:44:41;19.58;;;4.57;;
11189;SDS011;5651;50.926;4.718;2023-02-24T02:47:40;21.02;;;4.38;;
11189;SDS011;5651;50.926;4.718;2023-02-24T02:52:56;29.40;;;5.45;;
11189;SDS011;5651;50.926;4.718;2023-02-24T02:56:08;25.00;;;4.30;;
11189;SDS011;5651;50.926;4.718;2023-02-24T02:58:22;16.92;;;4.43;;
11189;SDS011;5651;50.926;4.718;2023-02-24T03:00:52;29.95;;;4.93;;
11189;SDS011;5651;50.926;4.718;2023-02-24T03:03:26;18.52;;;4.40;;
11189;SDS011;5651;50.926;4.718;2023-02-24T03:05:58;22.02;;;5.45;;
11189;SDS011;5651;50.926;4.718;2023-02-24T03:08:28;26.70;;;5.38;;
11189;SDS011;5651;50.926;4.718;2023-02-24T03:11:01;15.75;;;3.92;;
11189;SDS011;5651;50.926;4.718;2023-02-24T03:13:31;24.63;;;4.97;;
11189;SDS011;5651;50.926;4.718;2023-02-24T03:16:02;17.52;;;4.65;;
11189;SDS011;5651;50.926;4.718;2023-02-24T03:18:33;17.08;;;4.13;;
11189;SDS011;5651;50.926;4.718;2023-02-24T03:21:04;22.42;;;5.15;;
11189;SDS011;5651;50.926;4.718;2023-02-24T03:23:39;22.23;;;4.90;;
11189;SDS011;5651;50.926;4.718;2023-02-24T03:26:10;19.13;;;5.50;;
11189;SDS011;5651;50.926;4.718;2023-02-24T03:36:39;19.65;;;4.55;;
11189;SDS011;5651;50.926;4.718;2023-02-24T03:39:06;22.92;;;5.05;;
11189;SDS011;5651;50.926;4.718;2023-02-24T03:41:39;12.63;;;3.90;;
11189;SDS011;5651;50.926;4.718;2023-02-24T03:44:10;14.82;;;4.03;;
11189;SDS011;5651;50.926;4.718;2023-02-24T03:46:36;20.83;;;4.18;;
11189;SDS011;5651;50.926;4.718;2023-02-24T03:49:08;19.02;;;4.93;;
11189;SDS011;5651;50.926;4.718;2023-02-24T03:51:36;20.40;;;4.22;;
11189;SDS011;5651;50.926;4.718;2023-02-24T03:56:57;20.25;;;4.50;;
11189;SDS011;5651;50.926;4.718;2023-02-24T03:59:38;20.88;;;4.70;;
11189;SDS011;5651;50.926;4.718;2023-02-24T04:02:27;24.20;;;4.05;;
11189;SDS011;5651;50.926;4.718;2023-02-24T04:05:38;17.65;;;4.22;;
11189;SDS011;5651;50.926;4.718;2023-02-24T04:10:40;18.05;;;4.30;;
11189;SDS011;5651;50.926;4.718;2023-02-24T04:13:20;17.23;;;4.90;;
11189;SDS011;5651;50.926;4.718;2023-02-24T04:16:10;22.63;;;4.85;;
11189;SDS011;5651;50.926;4.718;2023-02-24T04:18:52;14.65;;;4.18;;
11189;SDS011;5651;50.926;4.718;2023-02-24T04:21:22;21.63;;;3.97;;
11189;SDS011;5651;50.926;4.718;2023-02-24T04:23:55;23.92;;;5.40;;
11189;SDS011;5651;50.926;4.718;2023-02-24T04:26:22;24.92;;;4.05;;
11189;SDS011;5651;50.926;4.718;2023-02-24T04:28:49;16.67;;;3.92;;
11189;SDS011;5651;50.926;4.718;2023-02-24T04:31:16;15.77;;;4.50;;
11189;SDS011;5651;50.926;4.718;2023-02-24T04:33:44;16.75;;;4.20;;
11189;SDS011;5651;50.926;4.718;2023-02-24T04:36:17;28.65;;;4.97;;
11189;SDS011;5651;50.926;4.718;2023-02-24T04:38:44;29.08;;;5.85;;
11189;SDS011;5651;50.926;4.718;2023-02-24T04:41:11;20.77;;;4.63;;
11189;SDS011;5651;50.926;4.718;2023-02-24T04:43:43;17.63;;;4.03;;
11189;SDS011;5651;50.926;4.718;2023-02-24T04:46:09;24.27;;;4.85;;
11189;SDS011;5651;50.926;4.718;2023-02-24T04:48:36;19.98;;;4.65;;
11189;SDS011;5651;50.926;4.718;2023-02-24T04:51:03;20.80;;;4.30;;
11189;SDS011;5651;50.926;4.718;2023-02-24T04:53:30;21.67;;;4.78;;
11189;SDS011;5651;50.926;4.718;2023-02-24T04:56:00;18.63;;;4.97;;
11189;SDS011;5651;50.926;4.718;2023-02-24T04:58:32;17.50;;;5.78;;
11189;SDS011;5651;50.926;4.718;2023-02-24T05:00:58;16.67;;;5.13;;
11189;SDS011;5651;50.926;4.718;2023-02-24T05:03:25;23.55;;;4.65;;
11189;SDS011;5651;50.926;4.718;2023-02-24T05:05:58;18.52;;;4.72;;
11189;SDS011;5651;50.926;4.718;2023-02-24T05:08:27;18.60;;;4.73;;
11189;SDS011;5651;50.926;4.718;2023-02-24T05:10:54;19.00;;;6.13;;
11189;SDS011;5651;50.926;4.718;2023-02-24T05:13:23;20.38;;;4.97;;
11189;SDS011;5651;50.926;4.718;2023-02-24T05:15:53;21.30;;;6.05;;
11189;SDS011;5651;50.926;4.718;2023-02-24T05:18:30;24.55;;;6.10;;
11189;SDS011;5651;50.926;4.718;2023-02-24T05:21:11;20.10;;;4.60;;
11189;SDS011;5651;50.926;4.718;2023-02-24T05:23:58;22.77;;;4.40;;
11189;SDS011;5651;50.926;4.718;2023-02-24T05:26:24;14.82;;;4.93;;
11189;SDS011;5651;50.926;4.718;2023-02-24T05:28:51;15.02;;;4.80;;
11189;SDS011;5651;50.926;4.718;2023-02-24T05:31:19;13.82;;;4.13;;
11189;SDS011;5651;50.926;4.718;2023-02-24T05:33:49;16.40;;;5.25;;
11189;SDS011;5651;50.926;4.718;2023-02-24T05:36:22;21.15;;;5.90;;
11189;SDS011;5651;50.926;4.718;2023-02-24T05:38:50;21.08;;;5.50;;
11189;SDS011;5651;50.926;4.718;2023-02-24T05:41:30;23.13;;;5.82;;
11189;SDS011;5651;50.926;4.718;2023-02-24T05:44:00;26.90;;;6.45;;
11189;SDS011;5651;50.926;4.718;2023-02-24T05:46:32;20.85;;;6.28;;
11189;SDS011;5651;50.926;4.718;2023-02-24T05:49:04;19.83;;;5.45;;
11189;SDS011;5651;50.926;4.718;2023-02-24T05:51:35;23.08;;;4.43;;
11189;SDS011;5651;50.926;4.718;2023-02-24T05:54:02;15.18;;;4.95;;
11189;SDS011;5651;50.926;4.718;2023-02-24T05:56:36;26.75;;;5.85;;
11189;SDS011;5651;50.926;4.718;2023-02-24T05:59:04;22.40;;;4.40;;
11189;SDS011;5651;50.926;4.718;2023-02-24T06:01:34;15.45;;;4.85;;
11189;SDS011;5651;50.926;4.718;2023-02-24T06:04:03;18.70;;;4.75;;
11189;SDS011;5651;50.926;4.718;2023-02-24T06:06:32;20.08;;;5.10;;
11189;SDS011;5651;50.926;4.718;2023-02-24T06:09:04;18.52;;;5.43;;
11189;SDS011;5651;50.926;4.718;2023-02-24T06:11:34;18.88;;;5.70;;
11189;SDS011;5651;50.926;4.718;2023-02-24T06:14:00;19.67;;;5.13;;
11189;SDS011;5651;50.926;4.718;2023-02-24T06:16:26;24.20;;;5.40;;
11189;SDS011;5651;50.926;4.718;2023-02-24T06:18:52;18.10;;;5.28;;
11189;SDS011;5651;50.926;4.718;2023-02-24T06:21:20;24.80;;;5.60;;
11189;SDS011;5651;50.926;4.718;2023-02-24T06:23:46;18.08;;;4.32;;
11189;SDS011;5651;50.926;4.718;2023-02-24T06:26:12;20.65;;;5.47;;
11189;SDS011;5651;50.926;4.718;2023-02-24T06:28:40;17.08;;;4.78;;
11189;SDS011;5651;50.926;4.718;2023-02-24T06:31:09;19.17;;;5.22;;
11189;SDS011;5651;50.926;4.718;2023-02-24T06:33:38;24.58;;;6.55;;
11189;SDS011;5651;50.926;4.718;2023-02-24T06:36:05;16.33;;;6.03;;
11189;SDS011;5651;50.926;4.718;2023-02-24T06:38:34;18.52;;;5.45;;
11189;SDS011;5651;50.926;4.718;2023-02-24T06:41:02;25.45;;;6.38;;
11189;SDS011;5651;50.926;4.718;2023-02-24T06:43:30;26.52;;;6.15;;
11189;SDS011;5651;50.926;4.718;2023-02-24T06:45:56;28.02;;;6.07;;
11189;SDS011;5651;50.926;4.718;2023-02-24T06:48:23;27.27;;;5.57;;
11189;SDS011;5651;50.926;4.718;2023-02-24T06:50:49;25.98;;;7.72;;
11189;SDS011;5651;50.926;4.718;2023-02-24T06:53:16;15.88;;;5.82;;
11189;SDS011;5651;50.926;4.718;2023-02-24T06:55:43;21.95;;;5.95;;
11189;SDS011;5651;50.926;4.718;2023-02-24T06:58:16;28.08;;;7.97;;
11189;SDS011;5651;50.926;4.718;2023-02-24T07:00:44;32.05;;;5.97;;
11189;SDS011;5651;50.926;4.718;2023-02-24T07:03:24;34.25;;;7.18;;
11189;SDS011;5651;50.926;4.718;2023-02-24T07:06:05;28.05;;;5.97;;
11189;SDS011;5651;50.926;4.718;2023-02-24T07:08:51;20.55;;;5.30;;
11189;SDS011;5651;50.926;4.718;2023-02-24T07:11:18;34.60;;;7.43;;
11189;SDS011;5651;50.926;4.718;2023-02-24T07:13:45;32.47;;;6.00;;
11189;SDS011;5651;50.926;4.718;2023-02-24T07:16:13;19.77;;;6.65;;
11189;SDS011;5651;50.926;4.718;2023-02-24T07:18:40;26.48;;;6.38;;
11189;SDS011;5651;50.926;4.718;2023-02-24T07:21:08;21.98;;;6.93;;
11189;SDS011;5651;50.926;4.718;2023-02-24T07:23:38;28.10;;;7.72;;
11189;SDS011;5651;50.926;4.718;2023-02-24T07:26:13;28.13;;;10.35;;
11189;SDS011;5651;50.926;4.718;2023-02-24T07:28:42;41.25;;;11.55;;
11189;SDS011;5651;50.926;4.718;2023-02-24T07:31:12;29.42;;;10.05;;
11189;SDS011;5651;50.926;4.718;2023-02-24T07:33:42;22.58;;;8.65;;
11189;SDS011;5651;50.926;4.718;2023-02-24T07:36:10;31.55;;;8.98;;
11189;SDS011;5651;50.926;4.718;2023-02-24T07:38:42;21.17;;;8.55;;
11189;SDS011;5651;50.926;4.718;2023-02-24T07:41:09;30.38;;;8.68;;
11189;SDS011;5651;50.926;4.718;2023-02-24T07:43:37;28.85;;;8.70;;
11189;SDS011;5651;50.926;4.718;2023-02-24T07:46:12;19.77;;;8.88;;
11189;SDS011;5651;50.926;4.718;2023-02-24T07:48:40;23.60;;;7.97;;
11189;SDS011;5651;50.926;4.718;2023-02-24T07:51:07;27.77;;;9.32;;
11189;SDS011;5651;50.926;4.718;2023-02-24T07:53:34;28.35;;;9.25;;
11189;SDS011;5651;50.926;4.718;2023-02-24T07:56:06;30.65;;;10.45;;
11189;SDS011;5651;50.926;4.718;2023-02-24T07:58:41;26.95;;;9.68;;
11189;SDS011;5651;50.926;4.718;2023-02-24T08:01:16;20.58;;;8.77;;
11189;SDS011;5651;50.926;4.718;2023-02-24T08:03:49;23.00;;;9.20;;
11189;SDS011;5651;50.926;4.718;2023-02-24T08:06:17;34.58;;;8.45;;
11189;SDS011;5651;50.926;4.718;2023-02-24T08:08:52;27.38;;;7.55;;
11189;SDS011;5651;50.926;4.718;2023-02-24T08:11:41;27.67;;;6.85;;
11189;SDS011;5651;50.926;4.718;2023-02-24T08:14:11;20.35;;;5.60;;
11189;SDS011;5651;50.926;4.718;2023-02-24T08:16:44;18.23;;;5.93;;
11189;SDS011;5651;50.926;4.718;2023-02-24T08:19:15;19.70;;;6.38;;
11189;SDS011;5651;50.926;4.718;2023-02-24T08:21:47;15.23;;;5.60;;
11189;SDS011;5651;50.926;4.718;2023-02-24T08:24:21;16.63;;;5.47;;
11189;SDS011;5651;50.926;4.718;2023-02-24T08:26:52;14.82;;;6.15;;
11189;SDS011;5651;50.926;4.718;2023-02-24T08:29:38;18.65;;;5.05;;
11189;SDS011;5651;50.926;4.718;2023-02-24T08:32:05;15.48;;;6.35;;
11189;SDS011;5651;50.926;4.718;2023-02-24T08:34:34;14.10;;;4.38;;
11189;SDS011;5651;50.926;4.718;2023-02-24T08:37:00;18.65;;;4.93;;
11189;SDS011;5651;50.926;4.718;2023-02-24T08:39:26;15.70;;;5.50;;
11189;SDS011;5651;50.926;4.718;2023-02-24T08:42:01;20.48;;;5.07;;
11189;SDS011;5651;50.926;4.718;2023-02-24T08:44:27;12.57;;;5.22;;
11189;SDS011;5651;50.926;4.718;2023-02-24T08:46:53;12.73;;;4.15;;
11189;SDS011;5651;50.926;4.718;2023-02-24T08:49:20;12.40;;;4.30;;
11189;SDS011;5651;50.926;4.718;2023-02-24T08:51:49;17.40;;;4.80;;
11189;SDS011;5651;50.926;4.718;2023-02-24T08:54:18;18.17;;;4.18;;
11189;SDS011;5651;50.926;4.718;2023-02-24T08:56:52;20.67;;;5.50;;
11189;SDS011;5651;50.926;4.718;2023-02-24T08:59:23;18.42;;;4.25;;
11189;SDS011;5651;50.926;4.718;2023-02-24T09:02:03;15.55;;;3.08;;
11189;SDS011;5651;50.926;4.718;2023-02-24T09:04:47;18.60;;;4.32;;
11189;SDS011;5651;50.926;4.718;2023-02-24T09:07:30;12.52;;;3.50;;
11189;SDS011;5651;50.926;4.718;2023-02-24T09:10:00;7.00;;;3.00;;
11189;SDS011;5651;50.926;4.718;2023-02-24T09:12:29;18.50;;;4.05;;
11189;SDS011;5651;50.926;4.718;2023-02-24T09:14:57;16.85;;;4.00;;
11189;SDS011;5651;50.926;4.718;2023-02-24T09:17:27;10.45;;;3.40;;
11189;SDS011;5651;50.926;4.718;2023-02-24T09:20:20;12.75;;;2.97;;
11189;SDS011;5651;50.926;4.718;2023-02-24T09:23:05;17.00;;;3.83;;
11189;SDS011;5651;50.926;4.718;2023-02-24T09:25:37;16.92;;;3.72;;
11189;SDS011;5651;50.926;4.718;2023-02-24T09:30:47;12.15;;;3.13;;
11189;SDS011;5651;50.926;4.718;2023-02-24T09:33:31;9.48;;;2.47;;
11189;SDS011;5651;50.926;4.718;2023-02-24T09:36:04;16.80;;;2.55;;
11189;SDS011;5651;50.926;4.718;2023-02-24T09:38:42;11.18;;;1.90;;
11189;SDS011;5651;50.926;4.718;2023-02-24T09:49:54;6.50;;;1.52;;
11189;SDS011;5651;50.926;4.718;2023-02-24T09:52:24;7.05;;;2.03;;
11189;SDS011;5651;50.926;4.718;2023-02-24T09:55:17;12.30;;;2.55;;
11189;SDS011;5651;50.926;4.718;2023-02-24T10:00:43;13.07;;;3.00;;
11189;SDS011;5651;50.926;4.718;2023-02-24T10:03:30;9.18;;;2.50;;
11189;SDS011;5651;50.926;4.718;2023-02-24T10:06:22;10.40;;;2.72;;
11189;SDS011;5651;50.926;4.718;2023-02-24T10:08:53;11.07;;;3.38;;
11189;SDS011;5651;50.926;4.718;2023-02-24T10:11:23;15.57;;;2.75;;
11189;SDS011;5651;50.926;4.718;2023-02-24T10:13:59;10.60;;;2.67;;
11189;SDS011;5651;50.926;4.718;2023-02-24T10:16:29;10.95;;;2.55;;
11189;SDS011;5651;50.926;4.718;2023-02-24T10:19:25;14.70;;;3.03;;
11189;SDS011;5651;50.926;4.718;2023-02-24T10:21:55;16.42;;;3.10;;
11189;SDS011;5651;50.926;4.718;2023-02-24T10:24:37;10.35;;;3.42;;
11189;SDS011;5651;50.926;4.718;2023-02-24T10:32:49;13.63;;;3.55;;
11189;SDS011;5651;50.926;4.718;2023-02-24T10:35:20;10.98;;;2.83;;
11189;SDS011;5651;50.926;4.718;2023-02-24T10:37:52;15.48;;;4.10;;
11189;SDS011;5651;50.926;4.718;2023-02-24T10:40:23;9.45;;;3.75;;
11189;SDS011;5651;50.926;4.718;2023-02-24T10:43:08;13.05;;;4.65;;
11189;SDS011;5651;50.926;4.718;2023-02-24T10:45:39;11.70;;;4.30;;
11189;SDS011;5651;50.926;4.718;2023-02-24T10:48:23;11.02;;;3.30;;
11189;SDS011;5651;50.926;4.718;2023-02-24T10:50:53;12.77;;;4.05;;
11189;SDS011;5651;50.926;4.718;2023-02-24T10:53:32;14.30;;;3.95;;
11189;SDS011;5651;50.926;4.718;2023-02-24T10:56:08;12.45;;;3.42;;
11189;SDS011;5651;50.926;4.718;2023-02-24T10:59:13;8.45;;;3.10;;
11189;SDS011;5651;50.926;4.718;2023-02-24T11:02:06;13.48;;;3.10;;
11189;SDS011;5651;50.926;4.718;2023-02-24T11:05:04;15.65;;;3.40;;
11189;SDS011;5651;50.926;4.718;2023-02-24T11:08:03;11.27;;;3.72;;
11189;SDS011;5651;50.926;4.718;2023-02-24T11:10:31;12.18;;;4.05;;
11189;SDS011;5651;50.926;4.718;2023-02-24T11:13:17;14.45;;;4.25;;
11189;SDS011;5651;50.926;4.718;2023-02-24T11:16:02;14.48;;;4.35;;
11189;SDS011;5651;50.926;4.718;2023-02-24T11:18:50;11.27;;;4.07;;
11189;SDS011;5651;50.926;4.718;2023-02-24T11:21:17;9.90;;;4.65;;
11189;SDS011;5651;50.926;4.718;2023-02-24T11:23:43;15.32;;;3.90;;
11189;SDS011;5651;50.926;4.718;2023-02-24T11:26:34;10.50;;;3.35;;
11189;SDS011;5651;50.926;4.718;2023-02-24T11:34:47;12.30;;;4.53;;
11189;SDS011;5651;50.926;4.718;2023-02-24T11:40:06;18.10;;;4.93;;
11189;SDS011;5651;50.926;4.718;2023-02-24T11:42:36;15.38;;;4.88;;
11189;SDS011;5651;50.926;4.718;2023-02-24T11:45:20;12.73;;;3.45;;
11189;SDS011;5651;50.926;4.718;2023-02-24T11:47:56;12.10;;;3.75;;
11189;SDS011;5651;50.926;4.718;2023-02-24T11:52:57;13.93;;;4.18;;
11189;SDS011;5651;50.926;4.718;2023-02-24T11:55:34;6.63;;;3.50;;
11189;SDS011;5651;50.926;4.718;2023-02-24T12:01:11;13.65;;;3.30;;
11189;SDS011;5651;50.926;4.718;2023-02-24T12:06:46;12.13;;;3.45;;
11189;SDS011;5651;50.926;4.718;2023-02-24T12:09:21;13.93;;;3.65;;
11189;SDS011;5651;50.926;4.718;2023-02-24T12:14:40;9.50;;;3.25;;
11189;SDS011;5651;50.926;4.718;2023-02-24T12:22:49;15.60;;;3.40;;
11189;SDS011;5651;50.926;4.718;2023-02-24T12:25:22;9.68;;;3.50;;
11189;SDS011;5651;50.926;4.718;2023-02-24T12:30:33;13.13;;;3.40;;
11189;SDS011;5651;50.926;4.718;2023-02-24T12:36:04;11.40;;;3.83;;
11189;SDS011;5651;50.926;4.718;2023-02-24T12:44:20;12.73;;;3.22;;
11189;SDS011;5651;50.926;4.718;2023-02-24T12:47:13;10.32;;;3.38;;
11189;SDS011;5651;50.926;4.718;2023-02-24T12:52:52;11.88;;;3.90;;
11189;SDS011;5651;50.926;4.718;2023-02-24T12:55:27;11.93;;;3.58;;
11189;SDS011;5651;50.926;4.718;2023-02-24T12:58:07;13.25;;;4.03;;
11189;SDS011;5651;50.926;4.718;2023-02-24T13:06:19;16.17;;;4.70;;
11189;SDS011;5651;50.926;4.718;2023-02-24T13:14:05;18.50;;;4.60;;
11189;SDS011;5651;50.926;4.718;2023-02-24T13:16:45;10.18;;;4.50;;
11189;SDS011;5651;50.926;4.718;2023-02-24T13:19:18;12.13;;;4.05;;
11189;SDS011;5651;50.926;4.718;2023-02-24T13:24:30;15.38;;;4.40;;
11189;SDS011;5651;50.926;4.718;2023-02-24T13:27:31;15.80;;;4.68;;
11189;SDS011;5651;50.926;4.718;2023-02-24T13:32:34;13.40;;;4.50;;
11189;SDS011;5651;50.926;4.718;2023-02-24T13:37:38;12.27;;;5.05;;
11189;SDS011;5651;50.926;4.718;2023-02-24T13:40:12;10.48;;;5.05;;
11189;SDS011;5651;50.926;4.718;2023-02-24T13:45:22;16.92;;;6.68;;
11189;SDS011;5651;50.926;4.718;2023-02-24T13:50:39;16.05;;;5.43;;
11189;SDS011;5651;50.926;4.718;2023-02-24T13:53:55;14.98;;;5.32;;
11189;SDS011;5651;50.926;4.718;2023-02-24T13:55:59;15.98;;;6.45;;
11189;SDS011;5651;50.926;4.718;2023-02-24T14:01:43;17.58;;;6.68;;
11189;SDS011;5651;50.926;4.718;2023-02-24T14:04:17;14.43;;;6.22;;
11189;SDS011;5651;50.926;4.718;2023-02-24T14:06:51;14.85;;;6.10;;
11189;SDS011;5651;50.926;4.718;2023-02-24T14:09:23;19.73;;;7.15;;
11189;SDS011;5651;50.926;4.718;2023-02-24T14:11:57;19.38;;;5.72;;
11189;SDS011;5651;50.926;4.718;2023-02-24T14:14:37;16.30;;;6.45;;
11189;SDS011;5651;50.926;4.718;2023-02-24T14:17:03;15.05;;;6.20;;
11189;SDS011;5651;50.926;4.718;2023-02-24T14:19:29;14.10;;;5.95;;
11189;SDS011;5651;50.926;4.718;2023-02-24T14:21:57;14.48;;;6.43;;
11189;SDS011;5651;50.926;4.718;2023-02-24T14:24:25;16.48;;;7.28;;
11189;SDS011;5651;50.926;4.718;2023-02-24T14:26:53;16.50;;;6.10;;
11189;SDS011;5651;50.926;4.718;2023-02-24T14:29:22;16.55;;;6.82;;
11189;SDS011;5651;50.926;4.718;2023-02-24T14:31:54;17.38;;;7.20;;
11189;SDS011;5651;50.926;4.718;2023-02-24T14:34:21;15.93;;;7.47;;
11189;SDS011;5651;50.926;4.718;2023-02-24T14:36:51;15.13;;;6.93;;
11189;SDS011;5651;50.926;4.718;2023-02-24T14:39:20;15.07;;;6.78;;
11189;SDS011;5651;50.926;4.718;2023-02-24T14:41:47;14.00;;;7.75;;
11189;SDS011;5651;50.926;4.718;2023-02-24T14:44:16;16.42;;;7.47;;
11189;SDS011;5651;50.926;4.718;2023-02-24T14:46:46;20.10;;;8.48;;
11189;SDS011;5651;50.926;4.718;2023-02-24T14:49:24;16.83;;;7.93;;
11189;SDS011;5651;50.926;4.718;2023-02-24T14:51:53;13.95;;;7.25;;
11189;SDS011;5651;50.926;4.718;2023-02-24T14:54:46;18.92;;;9.38;;
11189;SDS011;5651;50.926;4.718;2023-02-24T14:57:18;18.27;;;8.65;;
11189;SDS011;5651;50.926;4.718;2023-02-24T14:59:50;22.25;;;9.18;;
11189;SDS011;5651;50.926;4.718;2023-02-24T15:02:21;18.75;;;10.18;;
11189;SDS011;5651;50.926;4.718;2023-02-24T15:04:53;21.67;;;9.40;;
11189;SDS011;5651;50.926;4.718;2023-02-24T15:07:24;18.27;;;9.70;;
11189;SDS011;5651;50.926;4.718;2023-02-24T15:09:53;17.90;;;10.18;;
11189;SDS011;5651;50.926;4.718;2023-02-24T15:14:54;22.95;;;10.82;;
11189;SDS011;5651;50.926;4.718;2023-02-24T15:17:25;26.40;;;10.43;;
11189;SDS011;5651;50.926;4.718;2023-02-24T15:19:51;20.15;;;11.52;;
11189;SDS011;5651;50.926;4.718;2023-02-24T15:22:30;24.52;;;11.73;;
11189;SDS011;5651;50.926;4.718;2023-02-24T15:28:24;22.10;;;12.15;;
11189;SDS011;5651;50.926;4.718;2023-02-24T15:33:35;19.92;;;11.57;;
11189;SDS011;5651;50.926;4.718;2023-02-24T15:36:04;25.42;;;11.77;;
11189;SDS011;5651;50.926;4.718;2023-02-24T15:38:40;21.77;;;12.35;;
11189;SDS011;5651;50.926;4.718;2023-02-24T15:41:07;19.60;;;11.10;;
11189;SDS011;5651;50.926;4.718;2023-02-24T15:46:21;21.67;;;11.23;;
11189;SDS011;5651;50.926;4.718;2023-02-24T15:48:57;18.60;;;10.93;;
11189;SDS011;5651;50.926;4.718;2023-02-24T15:51:37;23.70;;;11.63;;
11189;SDS011;5651;50.926;4.718;2023-02-24T15:54:06;20.88;;;11.57;;
11189;SDS011;5651;50.926;4.718;2023-02-24T15:56:35;25.77;;;12.48;;
11189;SDS011;5651;50.926;4.718;2023-02-24T15:59:01;25.90;;;13.63;;
11189;SDS011;5651;50.926;4.718;2023-02-24T16:01:30;25.88;;;13.43;;
11189;SDS011;5651;50.926;4.718;2023-02-24T16:03:57;30.30;;;14.15;;
11189;SDS011;5651;50.926;4.718;2023-02-24T16:06:24;22.45;;;13.75;;
11189;SDS011;5651;50.926;4.718;2023-02-24T16:08:51;22.67;;;13.15;;
11189;SDS011;5651;50.926;4.718;2023-02-24T16:11:20;26.52;;;13.82;;
11189;SDS011;5651;50.926;4.718;2023-02-24T16:13:58;24.80;;;13.30;;
11189;SDS011;5651;50.926;4.718;2023-02-24T16:16:24;22.15;;;12.95;;
11189;SDS011;5651;50.926;4.718;2023-02-24T16:18:51;27.30;;;13.77;;
11189;SDS011;5651;50.926;4.718;2023-02-24T16:21:17;27.60;;;15.10;;
11189;SDS011;5651;50.926;4.718;2023-02-24T16:23:43;23.63;;;14.30;;
11189;SDS011;5651;50.926;4.718;2023-02-24T16:26:16;23.90;;;13.60;;
11189;SDS011;5651;50.926;4.718;2023-02-24T16:28:53;22.75;;;12.23;;
11189;SDS011;5651;50.926;4.718;2023-02-24T16:31:23;26.98;;;13.88;;
11189;SDS011;5651;50.926;4.718;2023-02-24T16:33:50;29.33;;;14.98;;
11189;SDS011;5651;50.926;4.718;2023-02-24T16:36:16;25.55;;;14.02;;
11189;SDS011;5651;50.926;4.718;2023-02-24T16:38:42;26.23;;;15.30;;
11189;SDS011;5651;50.926;4.718;2023-02-24T16:41:10;25.08;;;15.07;;
11189;SDS011;5651;50.926;4.718;2023-02-24T16:43:37;23.00;;;13.68;;
11189;SDS011;5651;50.926;4.718;2023-02-24T16:46:04;30.30;;;16.02;;
11189;SDS011;5651;50.926;4.718;2023-02-24T16:48:31;27.75;;;16.83;;
11189;SDS011;5651;50.926;4.718;2023-02-24T16:51:03;31.10;;;16.08;;
11189;SDS011;5651;50.926;4.718;2023-02-24T16:53:30;25.95;;;15.20;;
11189;SDS011;5651;50.926;4.718;2023-02-24T16:55:56;27.92;;;15.07;;
11189;SDS011;5651;50.926;4.718;2023-02-24T16:58:22;26.25;;;15.40;;
11189;SDS011;5651;50.926;4.718;2023-02-24T17:00:49;24.27;;;13.77;;
11189;SDS011;5651;50.926;4.718;2023-02-24T17:03:21;25.63;;;14.05;;
11189;SDS011;5651;50.926;4.718;2023-02-24T17:05:49;26.77;;;14.25;;
11189;SDS011;5651;50.926;4.718;2023-02-24T17:08:15;25.05;;;12.20;;
11189;SDS011;5651;50.926;4.718;2023-02-24T17:10:42;28.60;;;11.00;;
11189;SDS011;5651;50.926;4.718;2023-02-24T17:13:12;22.77;;;10.27;;
11189;SDS011;5651;50.926;4.718;2023-02-24T17:15:39;31.25;;;12.63;;
11189;SDS011;5651;50.926;4.718;2023-02-24T17:18:06;30.27;;;11.98;;
11189;SDS011;5651;50.926;4.718;2023-02-24T17:20:33;22.80;;;10.10;;
11189;SDS011;5651;50.926;4.718;2023-02-24T17:23:00;27.52;;;9.70;;
11189;SDS011;5651;50.926;4.718;2023-02-24T17:25:27;21.92;;;9.38;;
11189;SDS011;5651;50.926;4.718;2023-02-24T17:27:54;27.70;;;10.43;;
11189;SDS011;5651;50.926;4.718;2023-02-24T17:30:22;22.00;;;9.43;;
11189;SDS011;5651;50.926;4.718;2023-02-24T17:32:50;24.90;;;9.32;;
11189;SDS011;5651;50.926;4.718;2023-02-24T17:35:16;24.27;;;9.13;;
11189;SDS011;5651;50.926;4.718;2023-02-24T17:37:42;21.90;;;7.97;;
11189;SDS011;5651;50.926;4.718;2023-02-24T17:40:08;20.73;;;7.05;;
11189;SDS011;5651;50.926;4.718;2023-02-24T17:42:35;23.05;;;7.03;;